sensor_id;sensor_type;location;lat;lon;timestamp;temperature;humidity
15554;DHT22;7878;44.632;10.942;2023-11-21T00:02:20;12.50;99.90
15554;DHT22;7878;44.632;10.942;2023-11-21T00:04:47;12.40;99.90
15554;DHT22;7878;44.632;10.942;2023-11-21T00:07:13;12.50;99.90
15554;DHT22;7878;44.632;10.942;2023-11-21T00:09:40;12.40;99.90
15554;DHT22;7878;44.632;10.942;2023-11-21T00:12:07;12.40;99.90
15554;DHT22;7878;44.632;10.942;2023-11-21T00:14:36;12.40;99.90
15554;DHT22;7878;44.632;10.942;2023-11-21T00:17:02;12.40;99.90
15554;DHT22;7878;44.632;10.942;2023-11-21T00:19:28;12.40;99.90
15554;DHT22;7878;44.632;10.942;2023-11-21T00:21:54;12.40;99.90
15554;DHT22;7878;44.632;10.942;2023-11-21T00:24:19;12.40;99.90
15554;DHT22;7878;44.632;10.942;2023-11-21T00:26:45;12.50;99.90
15554;DHT22;7878;44.632;10.942;2023-11-21T00:29:11;12.40;99.90
15554;DHT22;7878;44.632;10.942;2023-11-21T00:31:37;12.40;99.90
15554;DHT22;7878;44.632;10.942;2023-11-21T00:34:04;12.40;99.90
15554;DHT22;7878;44.632;10.942;2023-11-21T00:36:31;12.40;99.90
15554;DHT22;7878;44.632;10.942;2023-11-21T00:38:57;12.40;99.90
15554;DHT22;7878;44.632;10.942;2023-11-21T00:41:23;12.30;99.90
15554;DHT22;7878;44.632;10.942;2023-11-21T00:43:49;12.30;99.90
15554;DHT22;7878;44.632;10.942;2023-11-21T00:46:14;12.30;99.90
15554;DHT22;7878;44.632;10.942;2023-11-21T00:48:40;12.30;99.90
15554;DHT22;7878;44.632;10.942;2023-11-21T00:51:06;12.30;99.90
15554;DHT22;7878;44.632;10.942;2023-11-21T00:53:32;12.40;99.90
15554;DHT22;7878;44.632;10.942;2023-11-21T00:55:58;12.40;99.90
15554;DHT22;7878;44.632;10.942;2023-11-21T00:58:24;12.40;99.90
15554;DHT22;7878;44.632;10.942;2023-11-21T01:00:50;12.40;99.90
15554;DHT22;7878;44.632;10.942;2023-11-21T01:03:16;12.40;99.90
15554;DHT22;7878;44.632;10.942;2023-11-21T01:05:42;12.40;99.90
15554;DHT22;7878;44.632;10.942;2023-11-21T01:08:07;12.40;99.90
15554;DHT22;7878;44.632;10.942;2023-11-21T01:10:33;12.30;99.90
15554;DHT22;7878;44.632;10.942;2023-11-21T01:13:02;12.30;99.90
15554;DHT22;7878;44.632;10.942;2023-11-21T01:15:30;12.30;99.90
15554;DHT22;7878;44.632;10.942;2023-11-21T01:17:56;12.30;99.90
15554;DHT22;7878;44.632;10.942;2023-11-21T01:20:22;12.30;99.90
15554;DHT22;7878;44.632;10.942;2023-11-21T01:22:47;12.20;99.90
15554;DHT22;7878;44.632;10.942;2023-11-21T01:25:14;12.10;99.90
15554;DHT22;7878;44.632;10.942;2023-11-21T01:27:42;12.00;99.90
15554;DHT22;7878;44.632;10.942;2023-11-21T01:30:08;12.00;99.90
15554;DHT22;7878;44.632;10.942;2023-11-21T01:32:36;11.90;99.90
15554;DHT22;7878;44.632;10.942;2023-11-21T01:35:03;11.80;99.90
15554;DHT22;7878;44.632;10.942;2023-11-21T01:37:31;11.80;99.90
15554;DHT22;7878;44.632;10.942;2023-11-21T01:39:59;11.80;99.90
15554;DHT22;7878;44.632;10.942;2023-11-21T01:42:26;11.80;99.90
15554;DHT22;7878;44.632;10.942;2023-11-21T01:44:52;11.80;99.90
15554;DHT22;7878;44.632;10.942;2023-11-21T01:47:19;11.80;99.90
15554;DHT22;7878;44.632;10.942;2023-11-21T01:49:46;11.80;99.90
15554;DHT22;7878;44.632;10.942;2023-11-21T01:52:13;11.90;99.90
15554;DHT22;7878;44.632;10.942;2023-11-21T01:54:39;11.90;99.90
15554;DHT22;7878;44.632;10.942;2023-11-21T01:57:06;11.90;99.90
15554;DHT22;7878;44.632;10.942;2023-11-21T01:59:36;12.00;99.90
15554;DHT22;7878;44.632;10.942;2023-11-21T02:02:06;12.00;99.90
15554;DHT22;7878;44.632;10.942;2023-11-21T02:04:32;12.00;99.90
15554;DHT22;7878;44.632;10.942;2023-11-21T02:06:58;12.00;99.90
15554;DHT22;7878;44.632;10.942;2023-11-21T02:09:29;12.00;99.90
15554;DHT22;7878;44.632;10.942;2023-11-21T02:11:56;12.10;99.90
15554;DHT22;7878;44.632;10.942;2023-11-21T02:14:27;12.10;99.90
15554;DHT22;7878;44.632;10.942;2023-11-21T02:16:54;12.00;99.90
15554;DHT22;7878;44.632;10.942;2023-11-21T02:19:22;12.00;99.90
15554;DHT22;7878;44.632;10.942;2023-11-21T02:21:56;11.90;99.90
15554;DHT22;7878;44.632;10.942;2023-11-21T02:24:25;11.90;99.90
15554;DHT22;7878;44.632;10.942;2023-11-21T02:26:51;11.90;99.90
15554;DHT22;7878;44.632;10.942;2023-11-21T02:29:20;11.90;99.90
15554;DHT22;7878;44.632;10.942;2023-11-21T02:31:53;11.90;99.90
15554;DHT22;7878;44.632;10.942;2023-11-21T02:34:20;11.90;99.90
15554;DHT22;7878;44.632;10.942;2023-11-21T02:36:47;12.00;99.90
15554;DHT22;7878;44.632;10.942;2023-11-21T02:39:17;11.90;99.90
15554;DHT22;7878;44.632;10.942;2023-11-21T02:41:44;11.90;99.90
15554;DHT22;7878;44.632;10.942;2023-11-21T02:44:10;11.90;99.90
15554;DHT22;7878;44.632;10.942;2023-11-21T02:46:36;11.90;99.90
15554;DHT22;7878;44.632;10.942;2023-11-21T02:49:06;11.90;99.90
15554;DHT22;7878;44.632;10.942;2023-11-21T02:51:32;12.00;99.90
15554;DHT22;7878;44.632;10.942;2023-11-21T02:53:58;12.00;99.90
15554;DHT22;7878;44.632;10.942;2023-11-21T02:56:27;12.00;99.90
15554;DHT22;7878;44.632;10.942;2023-11-21T02:58:55;12.00;99.90
15554;DHT22;7878;44.632;10.942;2023-11-21T03:01:21;12.10;99.90
15554;DHT22;7878;44.632;10.942;2023-11-21T03:03:47;12.10;99.90
15554;DHT22;7878;44.632;10.942;2023-11-21T03:06:17;12.10;99.90
15554;DHT22;7878;44.632;10.942;2023-11-21T03:08:43;12.10;99.90
15554;DHT22;7878;44.632;10.942;2023-11-21T03:11:08;12.10;99.90
15554;DHT22;7878;44.632;10.942;2023-11-21T03:13:34;12.00;99.90
15554;DHT22;7878;44.632;10.942;2023-11-21T03:16:00;12.00;99.90
15554;DHT22;7878;44.632;10.942;2023-11-21T03:18:25;12.00;99.90
15554;DHT22;7878;44.632;10.942;2023-11-21T03:20:54;12.00;99.90
15554;DHT22;7878;44.632;10.942;2023-11-21T03:23:20;12.10;99.90
15554;DHT22;7878;44.632;10.942;2023-11-21T03:25:46;12.10;99.90
15554;DHT22;7878;44.632;10.942;2023-11-21T03:28:11;12.10;99.90
15554;DHT22;7878;44.632;10.942;2023-11-21T03:30:37;12.10;99.90
15554;DHT22;7878;44.632;10.942;2023-11-21T03:33:03;12.20;99.90
15554;DHT22;7878;44.632;10.942;2023-11-21T03:35:28;12.20;99.90
15554;DHT22;7878;44.632;10.942;2023-11-21T03:37:54;12.20;99.90
15554;DHT22;7878;44.632;10.942;2023-11-21T03:40:20;12.20;99.90
15554;DHT22;7878;44.632;10.942;2023-11-21T03:42:49;12.30;99.90
15554;DHT22;7878;44.632;10.942;2023-11-21T03:45:14;12.30;99.90
15554;DHT22;7878;44.632;10.942;2023-11-21T03:47:44;12.30;99.90
15554;DHT22;7878;44.632;10.942;2023-11-21T03:50:10;12.30;99.90
15554;DHT22;7878;44.632;10.942;2023-11-21T03:52:35;12.30;99.90
15554;DHT22;7878;44.632;10.942;2023-11-21T03:55:02;12.20;99.90
15554;DHT22;7878;44.632;10.942;2023-11-21T03:57:28;12.20;99.90
15554;DHT22;7878;44.632;10.942;2023-11-21T03:59:54;12.20;99.90
15554;DHT22;7878;44.632;10.942;2023-11-21T04:02:19;12.10;99.90
15554;DHT22;7878;44.632;10.942;2023-11-21T04:04:45;12.20;99.90
15554;DHT22;7878;44.632;10.942;2023-11-21T04:07:11;12.10;99.90
15554;DHT22;7878;44.632;10.942;2023-11-21T04:09:39;12.20;99.90
15554;DHT22;7878;44.632;10.942;2023-11-21T04:12:05;12.20;99.90
15554;DHT22;7878;44.632;10.942;2023-11-21T04:14:31;12.20;99.90
15554;DHT22;7878;44.632;10.942;2023-11-21T04:16:57;12.20;99.90
15554;DHT22;7878;44.632;10.942;2023-11-21T04:19:22;12.20;99.90
15554;DHT22;7878;44.632;10.942;2023-11-21T04:21:48;12.10;99.90
15554;DHT22;7878;44.632;10.942;2023-11-21T04:24:14;12.10;99.90
15554;DHT22;7878;44.632;10.942;2023-11-21T04:26:40;12.20;99.90
15554;DHT22;7878;44.632;10.942;2023-11-21T04:29:06;12.20;99.90
15554;DHT22;7878;44.632;10.942;2023-11-21T04:31:31;12.20;99.90
15554;DHT22;7878;44.632;10.942;2023-11-21T04:33:57;12.20;99.90
15554;DHT22;7878;44.632;10.942;2023-11-21T04:36:23;12.20;99.90
15554;DHT22;7878;44.632;10.942;2023-11-21T04:38:48;12.20;99.90
15554;DHT22;7878;44.632;10.942;2023-11-21T04:41:14;12.20;99.90
15554;DHT22;7878;44.632;10.942;2023-11-21T04:43:40;12.20;99.90
15554;DHT22;7878;44.632;10.942;2023-11-21T04:46:06;12.20;99.90
15554;DHT22;7878;44.632;10.942;2023-11-21T04:48:32;12.20;99.90
15554;DHT22;7878;44.632;10.942;2023-11-21T04:50:58;12.20;99.90
15554;DHT22;7878;44.632;10.942;2023-11-21T04:53:24;12.10;99.90
15554;DHT22;7878;44.632;10.942;2023-11-21T04:55:49;12.20;99.90
15554;DHT22;7878;44.632;10.942;2023-11-21T04:58:15;12.20;99.90
15554;DHT22;7878;44.632;10.942;2023-11-21T05:00:41;12.20;99.90
15554;DHT22;7878;44.632;10.942;2023-11-21T05:03:07;12.20;99.90
15554;DHT22;7878;44.632;10.942;2023-11-21T05:05:33;12.20;99.90
15554;DHT22;7878;44.632;10.942;2023-11-21T05:08:01;12.20;99.90
15554;DHT22;7878;44.632;10.942;2023-11-21T05:10:28;12.30;99.90
15554;DHT22;7878;44.632;10.942;2023-11-21T05:12:54;12.20;99.90
15554;DHT22;7878;44.632;10.942;2023-11-21T05:15:21;12.30;99.90
15554;DHT22;7878;44.632;10.942;2023-11-21T05:17:47;12.20;99.90
15554;DHT22;7878;44.632;10.942;2023-11-21T05:20:17;12.30;99.90
15554;DHT22;7878;44.632;10.942;2023-11-21T05:22:46;12.30;99.90
15554;DHT22;7878;44.632;10.942;2023-11-21T05:25:12;12.30;99.90
15554;DHT22;7878;44.632;10.942;2023-11-21T05:27:38;12.30;99.90
15554;DHT22;7878;44.632;10.942;2023-11-21T05:30:05;12.40;99.90
15554;DHT22;7878;44.632;10.942;2023-11-21T05:32:31;12.40;99.90
15554;DHT22;7878;44.632;10.942;2023-11-21T05:34:57;12.40;99.90
15554;DHT22;7878;44.632;10.942;2023-11-21T05:37:24;12.40;99.90
15554;DHT22;7878;44.632;10.942;2023-11-21T05:39:51;12.40;99.90
15554;DHT22;7878;44.632;10.942;2023-11-21T05:42:16;12.40;99.90
15554;DHT22;7878;44.632;10.942;2023-11-21T05:44:42;12.40;99.90
15554;DHT22;7878;44.632;10.942;2023-11-21T05:47:12;12.40;99.90
15554;DHT22;7878;44.632;10.942;2023-11-21T05:49:39;12.40;99.90
15554;DHT22;7878;44.632;10.942;2023-11-21T05:52:05;12.30;99.90
15554;DHT22;7878;44.632;10.942;2023-11-21T05:54:31;12.30;99.90
15554;DHT22;7878;44.632;10.942;2023-11-21T05:56:57;12.40;99.90
15554;DHT22;7878;44.632;10.942;2023-11-21T05:59:23;12.30;99.90
15554;DHT22;7878;44.632;10.942;2023-11-21T06:01:49;12.40;99.90
15554;DHT22;7878;44.632;10.942;2023-11-21T06:04:14;12.40;99.90
15554;DHT22;7878;44.632;10.942;2023-11-21T06:06:40;12.40;99.90
15554;DHT22;7878;44.632;10.942;2023-11-21T06:09:05;12.40;99.90
15554;DHT22;7878;44.632;10.942;2023-11-21T06:11:34;12.40;99.90
15554;DHT22;7878;44.632;10.942;2023-11-21T06:14:00;12.50;99.90
15554;DHT22;7878;44.632;10.942;2023-11-21T06:16:26;12.50;99.90
15554;DHT22;7878;44.632;10.942;2023-11-21T06:18:52;12.50;99.90
15554;DHT22;7878;44.632;10.942;2023-11-21T06:21:18;12.50;99.90
15554;DHT22;7878;44.632;10.942;2023-11-21T06:23:44;12.50;99.90
15554;DHT22;7878;44.632;10.942;2023-11-21T06:26:09;12.50;99.90
15554;DHT22;7878;44.632;10.942;2023-11-21T06:28:35;12.50;99.90
15554;DHT22;7878;44.632;10.942;2023-11-21T06:31:03;12.50;99.90
15554;DHT22;7878;44.632;10.942;2023-11-21T06:33:33;12.50;99.90
15554;DHT22;7878;44.632;10.942;2023-11-21T06:35:59;12.40;99.90
15554;DHT22;7878;44.632;10.942;2023-11-21T06:38:28;12.50;99.90
15554;DHT22;7878;44.632;10.942;2023-11-21T06:40:56;12.40;99.90
15554;DHT22;7878;44.632;10.942;2023-11-21T06:43:23;12.40;99.90
15554;DHT22;7878;44.632;10.942;2023-11-21T06:45:49;12.40;99.90
15554;DHT22;7878;44.632;10.942;2023-11-21T06:48:15;12.40;99.90
15554;DHT22;7878;44.632;10.942;2023-11-21T06:50:41;12.40;99.90
15554;DHT22;7878;44.632;10.942;2023-11-21T06:53:07;12.30;99.90
15554;DHT22;7878;44.632;10.942;2023-11-21T06:55:33;12.30;99.90
15554;DHT22;7878;44.632;10.942;2023-11-21T06:58:00;12.20;99.90
15554;DHT22;7878;44.632;10.942;2023-11-21T07:00:26;12.30;99.90
15554;DHT22;7878;44.632;10.942;2023-11-21T07:02:54;12.20;99.90
15554;DHT22;7878;44.632;10.942;2023-11-21T07:05:21;12.20;99.90
15554;DHT22;7878;44.632;10.942;2023-11-21T07:07:47;12.20;99.90
15554;DHT22;7878;44.632;10.942;2023-11-21T07:10:13;12.20;99.90
15554;DHT22;7878;44.632;10.942;2023-11-21T07:12:40;12.30;99.90
15554;DHT22;7878;44.632;10.942;2023-11-21T07:15:08;12.30;99.90
15554;DHT22;7878;44.632;10.942;2023-11-21T07:17:35;12.30;99.90
15554;DHT22;7878;44.632;10.942;2023-11-21T07:20:01;12.20;99.90
15554;DHT22;7878;44.632;10.942;2023-11-21T07:22:27;12.20;99.90
15554;DHT22;7878;44.632;10.942;2023-11-21T07:24:53;12.20;99.90
15554;DHT22;7878;44.632;10.942;2023-11-21T07:27:19;12.20;99.90
15554;DHT22;7878;44.632;10.942;2023-11-21T07:29:45;12.20;99.90
15554;DHT22;7878;44.632;10.942;2023-11-21T07:32:11;12.30;99.90
15554;DHT22;7878;44.632;10.942;2023-11-21T07:34:38;12.30;99.90
15554;DHT22;7878;44.632;10.942;2023-11-21T07:37:04;12.30;99.90
15554;DHT22;7878;44.632;10.942;2023-11-21T07:39:29;12.30;99.90
15554;DHT22;7878;44.632;10.942;2023-11-21T07:41:56;12.20;99.90
15554;DHT22;7878;44.632;10.942;2023-11-21T07:44:23;12.30;99.90
15554;DHT22;7878;44.632;10.942;2023-11-21T07:46:49;12.30;99.90
15554;DHT22;7878;44.632;10.942;2023-11-21T07:49:17;12.30;99.90
15554;DHT22;7878;44.632;10.942;2023-11-21T07:51:45;12.40;99.90
15554;DHT22;7878;44.632;10.942;2023-11-21T07:54:11;12.30;99.90
15554;DHT22;7878;44.632;10.942;2023-11-21T07:56:37;12.40;99.90
15554;DHT22;7878;44.632;10.942;2023-11-21T07:59:03;12.40;99.90
15554;DHT22;7878;44.632;10.942;2023-11-21T08:01:28;12.40;99.90
15554;DHT22;7878;44.632;10.942;2023-11-21T08:03:54;12.40;99.90
15554;DHT22;7878;44.632;10.942;2023-11-21T08:06:23;12.40;99.90
15554;DHT22;7878;44.632;10.942;2023-11-21T08:08:49;12.40;99.90
15554;DHT22;7878;44.632;10.942;2023-11-21T08:11:15;12.40;99.90
15554;DHT22;7878;44.632;10.942;2023-11-21T08:13:42;12.30;99.90
15554;DHT22;7878;44.632;10.942;2023-11-21T08:16:07;12.30;99.90
15554;DHT22;7878;44.632;10.942;2023-11-21T08:18:33;12.40;99.90
15554;DHT22;7878;44.632;10.942;2023-11-21T08:20:59;12.40;99.90
15554;DHT22;7878;44.632;10.942;2023-11-21T08:23:26;12.40;99.90
15554;DHT22;7878;44.632;10.942;2023-11-21T08:25:52;12.40;99.90
15554;DHT22;7878;44.632;10.942;2023-11-21T08:28:19;12.40;99.90
15554;DHT22;7878;44.632;10.942;2023-11-21T08:30:46;12.40;99.90
15554;DHT22;7878;44.632;10.942;2023-11-21T08:33:12;12.40;99.90
15554;DHT22;7878;44.632;10.942;2023-11-21T08:35:38;12.40;99.90
15554;DHT22;7878;44.632;10.942;2023-11-21T08:38:05;12.40;99.90
15554;DHT22;7878;44.632;10.942;2023-11-21T08:40:31;12.40;99.90
15554;DHT22;7878;44.632;10.942;2023-11-21T08:42:57;12.40;99.90
15554;DHT22;7878;44.632;10.942;2023-11-21T08:45:25;12.40;99.90
15554;DHT22;7878;44.632;10.942;2023-11-21T08:47:51;12.40;99.90
15554;DHT22;7878;44.632;10.942;2023-11-21T08:50:17;12.40;99.90
15554;DHT22;7878;44.632;10.942;2023-11-21T08:52:44;12.40;99.90
15554;DHT22;7878;44.632;10.942;2023-11-21T08:55:11;12.40;99.90
15554;DHT22;7878;44.632;10.942;2023-11-21T08:57:41;12.40;99.90
15554;DHT22;7878;44.632;10.942;2023-11-21T09:00:09;12.40;99.90
15554;DHT22;7878;44.632;10.942;2023-11-21T09:02:39;12.50;99.90
15554;DHT22;7878;44.632;10.942;2023-11-21T09:05:08;12.40;99.90
15554;DHT22;7878;44.632;10.942;2023-11-21T09:30:13;11.90;99.90
15554;DHT22;7878;44.632;10.942;2023-11-21T09:32:39;12.80;99.90
15554;DHT22;7878;44.632;10.942;2023-11-21T09:35:06;12.70;99.90
15554;DHT22;7878;44.632;10.942;2023-11-21T09:37:34;12.70;99.90
15554;DHT22;7878;44.632;10.942;2023-11-21T09:40:01;12.70;99.90
15554;DHT22;7878;44.632;10.942;2023-11-21T09:42:38;12.70;99.90
15554;DHT22;7878;44.632;10.942;2023-11-21T09:45:14;12.70;99.90
15554;DHT22;7878;44.632;10.942;2023-11-21T09:47:42;12.70;99.90
15554;DHT22;7878;44.632;10.942;2023-11-21T09:50:09;12.70;99.90
15554;DHT22;7878;44.632;10.942;2023-11-21T09:55:30;12.70;99.90
15554;DHT22;7878;44.632;10.942;2023-11-21T09:58:02;12.70;99.90
15554;DHT22;7878;44.632;10.942;2023-11-21T10:00:30;12.70;99.90
15554;DHT22;7878;44.632;10.942;2023-11-21T10:02:58;12.80;99.90
15554;DHT22;7878;44.632;10.942;2023-11-21T10:05:25;12.80;99.90
15554;DHT22;7878;44.632;10.942;2023-11-21T10:07:51;12.80;99.90
15554;DHT22;7878;44.632;10.942;2023-11-21T10:10:19;12.80;99.90
15554;DHT22;7878;44.632;10.942;2023-11-21T10:12:52;12.80;99.90
15554;DHT22;7878;44.632;10.942;2023-11-21T10:15:24;12.80;99.90
15554;DHT22;7878;44.632;10.942;2023-11-21T10:17:53;12.90;99.90
15554;DHT22;7878;44.632;10.942;2023-11-21T10:20:20;12.90;99.90
15554;DHT22;7878;44.632;10.942;2023-11-21T10:22:46;12.80;99.90
15554;DHT22;7878;44.632;10.942;2023-11-21T10:25:12;12.80;99.90
15554;DHT22;7878;44.632;10.942;2023-11-21T10:27:42;12.70;99.90
15554;DHT22;7878;44.632;10.942;2023-11-21T10:30:09;12.80;99.90
15554;DHT22;7878;44.632;10.942;2023-11-21T10:32:42;12.80;99.90
15554;DHT22;7878;44.632;10.942;2023-11-21T10:35:08;12.80;99.90
15554;DHT22;7878;44.632;10.942;2023-11-21T10:37:37;12.80;99.90
15554;DHT22;7878;44.632;10.942;2023-11-21T10:40:10;12.80;99.90
15554;DHT22;7878;44.632;10.942;2023-11-21T10:42:39;12.80;99.90
15554;DHT22;7878;44.632;10.942;2023-11-21T10:45:06;12.70;99.90
15554;DHT22;7878;44.632;10.942;2023-11-21T10:47:43;12.70;99.90
15554;DHT22;7878;44.632;10.942;2023-11-21T10:50:09;12.70;99.90
15554;DHT22;7878;44.632;10.942;2023-11-21T10:52:42;12.70;99.90
15554;DHT22;7878;44.632;10.942;2023-11-21T10:55:19;12.80;99.90
15554;DHT22;7878;44.632;10.942;2023-11-21T10:57:52;12.80;99.90
15554;DHT22;7878;44.632;10.942;2023-11-21T11:00:19;12.70;99.90
15554;DHT22;7878;44.632;10.942;2023-11-21T11:02:52;12.80;99.90
15554;DHT22;7878;44.632;10.942;2023-11-21T11:05:23;12.70;99.90
15554;DHT22;7878;44.632;10.942;2023-11-21T11:07:59;12.70;99.90
15554;DHT22;7878;44.632;10.942;2023-11-21T11:10:27;12.70;99.90
15554;DHT22;7878;44.632;10.942;2023-11-21T11:12:55;12.60;99.90
15554;DHT22;7878;44.632;10.942;2023-11-21T11:15:21;12.60;99.90
15554;DHT22;7878;44.632;10.942;2023-11-21T11:17:48;12.60;99.90
15554;DHT22;7878;44.632;10.942;2023-11-21T11:20:16;12.60;99.90
15554;DHT22;7878;44.632;10.942;2023-11-21T11:22:57;12.70;99.90
15554;DHT22;7878;44.632;10.942;2023-11-21T11:28:19;12.70;99.90
15554;DHT22;7878;44.632;10.942;2023-11-21T11:33:46;12.90;99.90
15554;DHT22;7878;44.632;10.942;2023-11-21T11:37:18;12.90;99.90
15554;DHT22;7878;44.632;10.942;2023-11-21T11:42:03;12.90;99.90
15554;DHT22;7878;44.632;10.942;2023-11-21T11:47:16;12.80;99.90
15554;DHT22;7878;44.632;10.942;2023-11-21T11:50:04;12.90;99.90
15554;DHT22;7878;44.632;10.942;2023-11-21T11:52:45;12.90;99.90
15554;DHT22;7878;44.632;10.942;2023-11-21T11:55:15;12.90;99.90
15554;DHT22;7878;44.632;10.942;2023-11-21T11:57:45;13.00;99.90
15554;DHT22;7878;44.632;10.942;2023-11-21T12:02:53;13.00;99.90
15554;DHT22;7878;44.632;10.942;2023-11-21T12:05:20;13.00;99.90
15554;DHT22;7878;44.632;10.942;2023-11-21T12:07:54;13.10;99.90
15554;DHT22;7878;44.632;10.942;2023-11-21T12:10:22;13.20;99.90
15554;DHT22;7878;44.632;10.942;2023-11-21T12:12:54;13.20;99.90
15554;DHT22;7878;44.632;10.942;2023-11-21T12:15:21;13.30;99.90
15554;DHT22;7878;44.632;10.942;2023-11-21T12:17:47;13.40;99.90
15554;DHT22;7878;44.632;10.942;2023-11-21T12:20:18;13.40;99.90
15554;DHT22;7878;44.632;10.942;2023-11-21T12:22:46;13.40;99.90
15554;DHT22;7878;44.632;10.942;2023-11-21T12:25:23;13.40;99.90
15554;DHT22;7878;44.632;10.942;2023-11-21T12:27:53;13.40;99.90
15554;DHT22;7878;44.632;10.942;2023-11-21T12:30:21;13.40;99.90
15554;DHT22;7878;44.632;10.942;2023-11-21T12:32:58;13.50;99.90
15554;DHT22;7878;44.632;10.942;2023-11-21T12:35:31;13.50;99.90
15554;DHT22;7878;44.632;10.942;2023-11-21T12:38:00;13.50;99.90
15554;DHT22;7878;44.632;10.942;2023-11-21T12:40:28;13.50;99.90
15554;DHT22;7878;44.632;10.942;2023-11-21T12:42:56;13.50;99.90
15554;DHT22;7878;44.632;10.942;2023-11-21T12:45:24;13.60;99.90
15554;DHT22;7878;44.632;10.942;2023-11-21T12:48:00;13.50;99.90
15554;DHT22;7878;44.632;10.942;2023-11-21T12:50:29;13.60;99.90
15554;DHT22;7878;44.632;10.942;2023-11-21T12:53:10;13.50;99.90
15554;DHT22;7878;44.632;10.942;2023-11-21T12:55:39;13.50;99.90
15554;DHT22;7878;44.632;10.942;2023-11-21T12:58:08;13.50;99.90
15554;DHT22;7878;44.632;10.942;2023-11-21T13:00:39;13.40;99.90
15554;DHT22;7878;44.632;10.942;2023-11-21T13:03:08;13.40;99.90
15554;DHT22;7878;44.632;10.942;2023-11-21T13:05:37;13.40;99.90
15554;DHT22;7878;44.632;10.942;2023-11-21T13:08:11;13.40;99.90
15554;DHT22;7878;44.632;10.942;2023-11-21T13:10:40;13.40;99.90
15554;DHT22;7878;44.632;10.942;2023-11-21T13:13:09;13.40;99.90
15554;DHT22;7878;44.632;10.942;2023-11-21T13:15:39;13.50;99.90
15554;DHT22;7878;44.632;10.942;2023-11-21T13:18:06;13.50;99.90
15554;DHT22;7878;44.632;10.942;2023-11-21T13:20:32;13.50;99.90
15554;DHT22;7878;44.632;10.942;2023-11-21T13:22:59;13.50;99.90
15554;DHT22;7878;44.632;10.942;2023-11-21T13:25:27;13.50;99.90
15554;DHT22;7878;44.632;10.942;2023-11-21T13:27:55;13.50;99.90
15554;DHT22;7878;44.632;10.942;2023-11-21T13:30:22;13.50;99.90
15554;DHT22;7878;44.632;10.942;2023-11-21T13:32:53;13.50;99.90
15554;DHT22;7878;44.632;10.942;2023-11-21T13:35:23;13.60;99.90
15554;DHT22;7878;44.632;10.942;2023-11-21T13:37:57;13.60;99.90
15554;DHT22;7878;44.632;10.942;2023-11-21T13:40:26;13.60;99.90
15554;DHT22;7878;44.632;10.942;2023-11-21T13:42:56;13.60;99.90
15554;DHT22;7878;44.632;10.942;2023-11-21T13:45:25;13.60;99.90
15554;DHT22;7878;44.632;10.942;2023-11-21T13:47:52;13.50;99.90
15554;DHT22;7878;44.632;10.942;2023-11-21T13:50:24;13.50;99.90
15554;DHT22;7878;44.632;10.942;2023-11-21T13:52:54;13.50;99.90
15554;DHT22;7878;44.632;10.942;2023-11-21T13:55:20;13.50;99.90
15554;DHT22;7878;44.632;10.942;2023-11-21T13:57:49;13.50;99.90
15554;DHT22;7878;44.632;10.942;2023-11-21T14:00:17;13.40;99.90
15554;DHT22;7878;44.632;10.942;2023-11-21T14:03:04;13.50;99.90
15554;DHT22;7878;44.632;10.942;2023-11-21T14:05:35;13.40;99.90
15554;DHT22;7878;44.632;10.942;2023-11-21T14:08:01;13.40;99.90
15554;DHT22;7878;44.632;10.942;2023-11-21T14:10:31;13.40;99.90
15554;DHT22;7878;44.632;10.942;2023-11-21T14:13:11;13.40;99.90
15554;DHT22;7878;44.632;10.942;2023-11-21T14:15:39;13.40;99.90
15554;DHT22;7878;44.632;10.942;2023-11-21T14:18:09;13.30;99.90
15554;DHT22;7878;44.632;10.942;2023-11-21T14:20:40;13.30;99.90
15554;DHT22;7878;44.632;10.942;2023-11-21T14:23:06;13.30;99.90
15554;DHT22;7878;44.632;10.942;2023-11-21T14:25:36;13.30;99.90
15554;DHT22;7878;44.632;10.942;2023-11-21T14:28:05;13.30;99.90
15554;DHT22;7878;44.632;10.942;2023-11-21T14:30:34;13.20;99.90
15554;DHT22;7878;44.632;10.942;2023-11-21T14:33:01;13.20;99.90
15554;DHT22;7878;44.632;10.942;2023-11-21T14:35:27;13.30;99.90
15554;DHT22;7878;44.632;10.942;2023-11-21T14:37:55;13.20;99.90
15554;DHT22;7878;44.632;10.942;2023-11-21T14:40:22;13.30;99.90
15554;DHT22;7878;44.632;10.942;2023-11-21T14:42:50;13.30;99.90
15554;DHT22;7878;44.632;10.942;2023-11-21T14:45:19;13.30;99.90
15554;DHT22;7878;44.632;10.942;2023-11-21T14:47:46;13.30;99.90
15554;DHT22;7878;44.632;10.942;2023-11-21T14:50:21;13.30;99.90
15554;DHT22;7878;44.632;10.942;2023-11-21T14:53:06;13.30;99.90
15554;DHT22;7878;44.632;10.942;2023-11-21T14:55:34;13.30;99.90
15554;DHT22;7878;44.632;10.942;2023-11-21T14:58:03;13.30;99.90
15554;DHT22;7878;44.632;10.942;2023-11-21T15:00:29;13.30;99.90
15554;DHT22;7878;44.632;10.942;2023-11-21T15:03:04;13.30;99.90
15554;DHT22;7878;44.632;10.942;2023-11-21T15:05:30;13.30;99.90
15554;DHT22;7878;44.632;10.942;2023-11-21T15:07:56;13.30;99.90
15554;DHT22;7878;44.632;10.942;2023-11-21T15:10:34;13.30;99.90
15554;DHT22;7878;44.632;10.942;2023-11-21T15:13:23;13.30;99.90
15554;DHT22;7878;44.632;10.942;2023-11-21T15:15:50;13.30;99.90
15554;DHT22;7878;44.632;10.942;2023-11-21T15:18:16;13.30;99.90
15554;DHT22;7878;44.632;10.942;2023-11-21T15:20:43;13.30;99.90
15554;DHT22;7878;44.632;10.942;2023-11-21T15:23:09;13.20;99.90
15554;DHT22;7878;44.632;10.942;2023-11-21T15:25:35;13.30;99.90
15554;DHT22;7878;44.632;10.942;2023-11-21T15:28:02;13.20;99.90
15554;DHT22;7878;44.632;10.942;2023-11-21T15:30:28;13.20;99.90
15554;DHT22;7878;44.632;10.942;2023-11-21T15:32:57;13.20;99.90
15554;DHT22;7878;44.632;10.942;2023-11-21T15:35:23;13.20;99.90
15554;DHT22;7878;44.632;10.942;2023-11-21T15:37:49;13.10;99.90
15554;DHT22;7878;44.632;10.942;2023-11-21T15:40:15;13.20;99.90
15554;DHT22;7878;44.632;10.942;2023-11-21T15:42:42;13.20;99.90
15554;DHT22;7878;44.632;10.942;2023-11-21T15:45:09;13.20;99.90
15554;DHT22;7878;44.632;10.942;2023-11-21T15:47:35;13.20;99.90
15554;DHT22;7878;44.632;10.942;2023-11-21T15:50:01;13.10;99.90
15554;DHT22;7878;44.632;10.942;2023-11-21T15:52:29;13.10;99.90
15554;DHT22;7878;44.632;10.942;2023-11-21T15:54:55;13.10;99.90
15554;DHT22;7878;44.632;10.942;2023-11-21T15:57:21;13.20;99.90
15554;DHT22;7878;44.632;10.942;2023-11-21T15:59:48;13.10;99.90
15554;DHT22;7878;44.632;10.942;2023-11-21T16:02:14;13.20;99.90
15554;DHT22;7878;44.632;10.942;2023-11-21T16:04:41;13.10;99.90
15554;DHT22;7878;44.632;10.942;2023-11-21T16:07:08;13.20;99.90
15554;DHT22;7878;44.632;10.942;2023-11-21T16:09:35;13.20;99.90
15554;DHT22;7878;44.632;10.942;2023-11-21T16:12:04;13.20;99.90
15554;DHT22;7878;44.632;10.942;2023-11-21T16:14:32;13.10;99.90